sensor_id;sensor_type;location;lat;lon;timestamp;P1;durP1;ratioP1;P2;durP2;ratioP2
39880;SDS011;25554;44.954;10.068;2023-04-25T00:00:41;1.83;;;1.27;;
39880;SDS011;25554;44.954;10.068;2023-04-25T00:05:34;1.70;;;0.90;;
39880;SDS011;25554;44.954;10.068;2023-04-25T00:08:03;1.10;;;1.00;;
39880;SDS011;25554;44.954;10.068;2023-04-25T00:10:29;1.58;;;1.20;;
39880;SDS011;25554;44.954;10.068;2023-04-25T00:15:22;1.50;;;1.13;;
39880;SDS011;25554;44.954;10.068;2023-04-25T00:17:49;3.53;;;1.35;;
39880;SDS011;25554;44.954;10.068;2023-04-25T00:20:18;2.80;;;1.30;;
39880;SDS011;25554;44.954;10.068;2023-04-25T00:22:45;2.25;;;1.70;;
39880;SDS011;25554;44.954;10.068;2023-04-25T00:27:37;2.63;;;1.40;;
39880;SDS011;25554;44.954;10.068;2023-04-25T00:30:04;2.83;;;1.58;;
39880;SDS011;25554;44.954;10.068;2023-04-25T00:32:32;1.50;;;1.30;;
39880;SDS011;25554;44.954;10.068;2023-04-25T00:37:25;3.83;;;2.13;;
39880;SDS011;25554;44.954;10.068;2023-04-25T00:39:51;4.55;;;1.38;;
39880;SDS011;25554;44.954;10.068;2023-04-25T00:42:20;1.40;;;1.23;;
39880;SDS011;25554;44.954;10.068;2023-04-25T00:47:13;2.45;;;1.70;;
39880;SDS011;25554;44.954;10.068;2023-04-25T00:52:06;3.40;;;1.52;;
39880;SDS011;25554;44.954;10.068;2023-04-25T00:54:32;2.63;;;1.45;;
39880;SDS011;25554;44.954;10.068;2023-04-25T00:59:27;1.95;;;1.50;;
39880;SDS011;25554;44.954;10.068;2023-04-25T01:01:55;4.32;;;1.90;;
39880;SDS011;25554;44.954;10.068;2023-04-25T01:06:48;1.50;;;1.35;;
39880;SDS011;25554;44.954;10.068;2023-04-25T01:09:14;2.97;;;2.28;;
39880;SDS011;25554;44.954;10.068;2023-04-25T01:14:07;1.92;;;1.45;;
39880;SDS011;25554;44.954;10.068;2023-04-25T01:16:34;1.75;;;1.50;;
39880;SDS011;25554;44.954;10.068;2023-04-25T01:19:06;2.83;;;1.52;;
39880;SDS011;25554;44.954;10.068;2023-04-25T01:21:36;2.20;;;1.58;;
39880;SDS011;25554;44.954;10.068;2023-04-25T01:26:29;2.00;;;1.80;;
39880;SDS011;25554;44.954;10.068;2023-04-25T01:28:56;2.05;;;1.50;;
39880;SDS011;25554;44.954;10.068;2023-04-25T01:31:23;4.07;;;1.77;;
39880;SDS011;25554;44.954;10.068;2023-04-25T01:36:16;1.48;;;1.30;;
39880;SDS011;25554;44.954;10.068;2023-04-25T01:41:09;4.87;;;2.07;;
39880;SDS011;25554;44.954;10.068;2023-04-25T01:43:36;1.80;;;1.70;;
39880;SDS011;25554;44.954;10.068;2023-04-25T01:46:02;1.95;;;1.77;;
39880;SDS011;25554;44.954;10.068;2023-04-25T01:48:29;7.93;;;2.00;;
39880;SDS011;25554;44.954;10.068;2023-04-25T01:50:56;2.42;;;1.60;;
39880;SDS011;25554;44.954;10.068;2023-04-25T01:53:22;2.35;;;1.70;;
39880;SDS011;25554;44.954;10.068;2023-04-25T01:55:50;1.83;;;1.63;;
39880;SDS011;25554;44.954;10.068;2023-04-25T01:58:20;3.25;;;1.90;;
39880;SDS011;25554;44.954;10.068;2023-04-25T02:01:00;2.13;;;1.90;;
39880;SDS011;25554;44.954;10.068;2023-04-25T02:03:32;3.10;;;1.88;;
39880;SDS011;25554;44.954;10.068;2023-04-25T02:05:59;1.90;;;1.70;;
39880;SDS011;25554;44.954;10.068;2023-04-25T02:08:27;2.72;;;2.17;;
39880;SDS011;25554;44.954;10.068;2023-04-25T02:10:54;2.72;;;2.00;;
39880;SDS011;25554;44.954;10.068;2023-04-25T02:13:22;5.40;;;2.85;;
39880;SDS011;25554;44.954;10.068;2023-04-25T02:16:02;4.85;;;2.00;;
39880;SDS011;25554;44.954;10.068;2023-04-25T02:18:29;5.75;;;1.98;;
39880;SDS011;25554;44.954;10.068;2023-04-25T02:20:58;3.90;;;2.00;;
39880;SDS011;25554;44.954;10.068;2023-04-25T02:23:25;3.08;;;2.20;;
39880;SDS011;25554;44.954;10.068;2023-04-25T02:25:52;3.55;;;2.03;;
39880;SDS011;25554;44.954;10.068;2023-04-25T02:28:20;2.83;;;2.03;;
39880;SDS011;25554;44.954;10.068;2023-04-25T02:30:47;3.85;;;2.20;;
39880;SDS011;25554;44.954;10.068;2023-04-25T02:35:42;2.58;;;2.17;;
39880;SDS011;25554;44.954;10.068;2023-04-25T02:40:35;3.05;;;2.10;;
39880;SDS011;25554;44.954;10.068;2023-04-25T02:45:28;2.50;;;2.25;;
39880;SDS011;25554;44.954;10.068;2023-04-25T02:47:55;5.57;;;2.30;;
39880;SDS011;25554;44.954;10.068;2023-04-25T02:50:22;3.63;;;2.00;;
39880;SDS011;25554;44.954;10.068;2023-04-25T02:52:48;4.93;;;1.63;;
39880;SDS011;25554;44.954;10.068;2023-04-25T02:55:20;3.05;;;2.42;;
39880;SDS011;25554;44.954;10.068;2023-04-25T02:57:48;2.95;;;2.47;;
39880;SDS011;25554;44.954;10.068;2023-04-25T03:00:24;3.42;;;2.42;;
39880;SDS011;25554;44.954;10.068;2023-04-25T03:05:17;3.58;;;2.63;;
39880;SDS011;25554;44.954;10.068;2023-04-25T03:07:43;2.78;;;2.05;;
39880;SDS011;25554;44.954;10.068;2023-04-25T03:10:11;5.60;;;2.75;;
39880;SDS011;25554;44.954;10.068;2023-04-25T03:15:04;3.22;;;2.30;;
39880;SDS011;25554;44.954;10.068;2023-04-25T03:17:31;2.40;;;2.15;;
39880;SDS011;25554;44.954;10.068;2023-04-25T03:19:58;5.00;;;2.35;;
39880;SDS011;25554;44.954;10.068;2023-04-25T03:22:25;3.88;;;2.15;;
39880;SDS011;25554;44.954;10.068;2023-04-25T03:24:51;2.90;;;2.45;;
39880;SDS011;25554;44.954;10.068;2023-04-25T03:27:19;5.05;;;2.58;;
39880;SDS011;25554;44.954;10.068;2023-04-25T03:29:45;2.83;;;2.15;;
39880;SDS011;25554;44.954;10.068;2023-04-25T03:32:12;2.45;;;2.22;;
39880;SDS011;25554;44.954;10.068;2023-04-25T03:37:06;3.77;;;2.07;;
39880;SDS011;25554;44.954;10.068;2023-04-25T03:39:36;3.70;;;2.65;;
39880;SDS011;25554;44.954;10.068;2023-04-25T03:42:05;8.63;;;2.58;;
39880;SDS011;25554;44.954;10.068;2023-04-25T03:44:32;2.83;;;2.30;;
39880;SDS011;25554;44.954;10.068;2023-04-25T03:46:59;5.55;;;2.25;;
39880;SDS011;25554;44.954;10.068;2023-04-25T03:51:59;2.85;;;2.03;;
39880;SDS011;25554;44.954;10.068;2023-04-25T03:54:27;2.80;;;2.30;;
39880;SDS011;25554;44.954;10.068;2023-04-25T03:57:01;6.97;;;2.45;;
39880;SDS011;25554;44.954;10.068;2023-04-25T03:59:30;3.10;;;2.50;;
39880;SDS011;25554;44.954;10.068;2023-04-25T04:01:57;4.57;;;2.22;;
39880;SDS011;25554;44.954;10.068;2023-04-25T04:06:50;2.38;;;2.10;;
39880;SDS011;25554;44.954;10.068;2023-04-25T04:09:27;4.10;;;1.77;;
39880;SDS011;25554;44.954;10.068;2023-04-25T04:11:55;3.45;;;2.03;;
39880;SDS011;25554;44.954;10.068;2023-04-25T04:14:22;4.38;;;2.72;;
39880;SDS011;25554;44.954;10.068;2023-04-25T04:16:50;3.05;;;2.40;;
39880;SDS011;25554;44.954;10.068;2023-04-25T04:19:18;2.88;;;2.40;;
39880;SDS011;25554;44.954;10.068;2023-04-25T04:21:52;7.00;;;3.67;;
39880;SDS011;25554;44.954;10.068;2023-04-25T04:26:52;2.50;;;2.28;;
39880;SDS011;25554;44.954;10.068;2023-04-25T04:29:32;3.25;;;2.88;;
39880;SDS011;25554;44.954;10.068;2023-04-25T04:32:05;4.30;;;2.10;;
39880;SDS011;25554;44.954;10.068;2023-04-25T04:34:35;3.55;;;2.63;;
39880;SDS011;25554;44.954;10.068;2023-04-25T04:37:03;5.45;;;2.95;;
39880;SDS011;25554;44.954;10.068;2023-04-25T04:39:30;3.53;;;2.72;;
39880;SDS011;25554;44.954;10.068;2023-04-25T04:42:05;5.13;;;3.05;;
39880;SDS011;25554;44.954;10.068;2023-04-25T04:44:50;3.30;;;2.88;;
39880;SDS011;25554;44.954;10.068;2023-04-25T04:47:36;6.43;;;3.08;;
39880;SDS011;25554;44.954;10.068;2023-04-25T04:50:31;7.97;;;3.72;;
39880;SDS011;25554;44.954;10.068;2023-04-25T04:53:06;7.57;;;3.10;;
39880;SDS011;25554;44.954;10.068;2023-04-25T04:55:42;6.32;;;4.65;;
39880;SDS011;25554;44.954;10.068;2023-04-25T04:58:35;7.07;;;3.67;;
39880;SDS011;25554;44.954;10.068;2023-04-25T05:01:10;6.20;;;3.38;;
39880;SDS011;25554;44.954;10.068;2023-04-25T05:04:02;6.55;;;3.60;;
39880;SDS011;25554;44.954;10.068;2023-04-25T05:06:47;9.35;;;5.85;;
39880;SDS011;25554;44.954;10.068;2023-04-25T05:09:23;6.22;;;3.92;;
39880;SDS011;25554;44.954;10.068;2023-04-25T05:12:05;7.45;;;4.03;;
39880;SDS011;25554;44.954;10.068;2023-04-25T05:14:54;6.10;;;3.10;;
39880;SDS011;25554;44.954;10.068;2023-04-25T05:17:40;4.97;;;3.08;;
39880;SDS011;25554;44.954;10.068;2023-04-25T05:20:33;5.88;;;3.30;;
39880;SDS011;25554;44.954;10.068;2023-04-25T05:23:18;4.72;;;3.03;;
39880;SDS011;25554;44.954;10.068;2023-04-25T05:26:01;4.18;;;2.95;;
39880;SDS011;25554;44.954;10.068;2023-04-25T05:28:50;6.97;;;3.45;;
39880;SDS011;25554;44.954;10.068;2023-04-25T05:31:36;6.43;;;3.63;;
39880;SDS011;25554;44.954;10.068;2023-04-25T05:34:12;3.75;;;3.20;;
39880;SDS011;25554;44.954;10.068;2023-04-25T05:36:45;4.75;;;3.70;;
39880;SDS011;25554;44.954;10.068;2023-04-25T05:39:15;5.97;;;3.15;;
39880;SDS011;25554;44.954;10.068;2023-04-25T05:42:05;8.35;;;3.50;;
39880;SDS011;25554;44.954;10.068;2023-04-25T05:44:50;6.10;;;3.72;;
39880;SDS011;25554;44.954;10.068;2023-04-25T05:47:24;9.43;;;4.75;;
39880;SDS011;25554;44.954;10.068;2023-04-25T05:50:07;5.60;;;3.88;;
39880;SDS011;25554;44.954;10.068;2023-04-25T05:52:50;5.28;;;4.20;;
39880;SDS011;25554;44.954;10.068;2023-04-25T05:55:23;7.38;;;4.00;;
39880;SDS011;25554;44.954;10.068;2023-04-25T05:57:50;4.53;;;3.42;;
39880;SDS011;25554;44.954;10.068;2023-04-25T06:02:47;5.25;;;3.60;;
39880;SDS011;25554;44.954;10.068;2023-04-25T06:05:14;4.75;;;3.35;;
39880;SDS011;25554;44.954;10.068;2023-04-25T06:10:07;4.72;;;3.35;;
39880;SDS011;25554;44.954;10.068;2023-04-25T06:12:34;3.92;;;3.10;;
39880;SDS011;25554;44.954;10.068;2023-04-25T06:15:02;5.25;;;3.75;;
39880;SDS011;25554;44.954;10.068;2023-04-25T06:17:30;6.97;;;4.18;;
39880;SDS011;25554;44.954;10.068;2023-04-25T06:19:57;28.23;;;14.50;;
39880;SDS011;25554;44.954;10.068;2023-04-25T06:24:50;7.22;;;3.70;;
39880;SDS011;25554;44.954;10.068;2023-04-25T06:29:43;8.77;;;4.57;;
39880;SDS011;25554;44.954;10.068;2023-04-25T06:32:10;8.30;;;4.32;;
39880;SDS011;25554;44.954;10.068;2023-04-25T06:37:03;6.10;;;4.53;;
39880;SDS011;25554;44.954;10.068;2023-04-25T06:39:30;8.93;;;4.35;;
39880;SDS011;25554;44.954;10.068;2023-04-25T06:41:56;5.53;;;3.85;;
39880;SDS011;25554;44.954;10.068;2023-04-25T06:44:41;7.00;;;3.65;;
39880;SDS011;25554;44.954;10.068;2023-04-25T06:47:09;5.78;;;3.10;;
39880;SDS011;25554;44.954;10.068;2023-04-25T06:49:36;8.50;;;2.95;;
39880;SDS011;25554;44.954;10.068;2023-04-25T06:52:02;6.05;;;3.20;;
39880;SDS011;25554;44.954;10.068;2023-04-25T06:54:29;3.10;;;2.47;;
39880;SDS011;25554;44.954;10.068;2023-04-25T06:57:03;5.03;;;2.15;;
39880;SDS011;25554;44.954;10.068;2023-04-25T06:59:31;6.43;;;2.92;;
39880;SDS011;25554;44.954;10.068;2023-04-25T07:04:25;2.65;;;2.03;;
39880;SDS011;25554;44.954;10.068;2023-04-25T07:06:55;3.25;;;2.55;;
39880;SDS011;25554;44.954;10.068;2023-04-25T07:09:42;2.13;;;1.80;;
39880;SDS011;25554;44.954;10.068;2023-04-25T07:12:08;3.72;;;1.83;;
39880;SDS011;25554;44.954;10.068;2023-04-25T07:14:35;2.05;;;1.85;;
39880;SDS011;25554;44.954;10.068;2023-04-25T07:17:01;3.15;;;1.90;;
39880;SDS011;25554;44.954;10.068;2023-04-25T07:19:30;5.10;;;2.05;;
39880;SDS011;25554;44.954;10.068;2023-04-25T07:22:00;1.63;;;1.52;;
39880;SDS011;25554;44.954;10.068;2023-04-25T07:24:27;3.10;;;2.17;;
39880;SDS011;25554;44.954;10.068;2023-04-25T07:26:55;4.07;;;1.90;;
39880;SDS011;25554;44.954;10.068;2023-04-25T07:29:21;3.65;;;2.03;;
39880;SDS011;25554;44.954;10.068;2023-04-25T07:31:48;3.95;;;2.10;;
39880;SDS011;25554;44.954;10.068;2023-04-25T07:36:41;2.15;;;1.75;;
39880;SDS011;25554;44.954;10.068;2023-04-25T07:39:07;2.15;;;1.85;;
39880;SDS011;25554;44.954;10.068;2023-04-25T07:41:37;2.33;;;1.73;;
39880;SDS011;25554;44.954;10.068;2023-04-25T07:44:05;1.98;;;1.50;;
39880;SDS011;25554;44.954;10.068;2023-04-25T07:46:34;1.60;;;1.50;;
39880;SDS011;25554;44.954;10.068;2023-04-25T07:49:00;1.50;;;1.40;;
39880;SDS011;25554;44.954;10.068;2023-04-25T07:51:27;2.58;;;1.35;;
39880;SDS011;25554;44.954;10.068;2023-04-25T07:53:58;1.13;;;0.95;;
39880;SDS011;25554;44.954;10.068;2023-04-25T07:56:25;1.45;;;1.35;;
39880;SDS011;25554;44.954;10.068;2023-04-25T07:58:52;4.13;;;1.50;;
39880;SDS011;25554;44.954;10.068;2023-04-25T08:01:19;2.22;;;1.50;;
39880;SDS011;25554;44.954;10.068;2023-04-25T08:03:56;1.65;;;1.55;;
39880;SDS011;25554;44.954;10.068;2023-04-25T08:06:32;1.35;;;1.20;;
39880;SDS011;25554;44.954;10.068;2023-04-25T08:09:13;1.52;;;1.42;;
39880;SDS011;25554;44.954;10.068;2023-04-25T08:11:41;1.30;;;1.20;;
39880;SDS011;25554;44.954;10.068;2023-04-25T08:14:11;2.03;;;0.88;;
39880;SDS011;25554;44.954;10.068;2023-04-25T08:16:39;1.15;;;0.70;;
39880;SDS011;25554;44.954;10.068;2023-04-25T08:19:06;1.42;;;0.63;;
39880;SDS011;25554;44.954;10.068;2023-04-25T08:21:33;2.15;;;1.05;;
39880;SDS011;25554;44.954;10.068;2023-04-25T08:24:04;3.33;;;1.27;;
39880;SDS011;25554;44.954;10.068;2023-04-25T08:26:34;3.05;;;0.70;;
39880;SDS011;25554;44.954;10.068;2023-04-25T08:29:03;1.02;;;0.50;;
39880;SDS011;25554;44.954;10.068;2023-04-25T08:31:30;2.08;;;0.82;;
39880;SDS011;25554;44.954;10.068;2023-04-25T08:33:59;2.85;;;1.10;;
39880;SDS011;25554;44.954;10.068;2023-04-25T08:36:52;2.58;;;0.90;;
39880;SDS011;25554;44.954;10.068;2023-04-25T08:39:51;1.02;;;0.50;;
39880;SDS011;25554;44.954;10.068;2023-04-25T08:42:18;1.00;;;0.40;;
39880;SDS011;25554;44.954;10.068;2023-04-25T08:44:45;0.30;;;0.30;;
39880;SDS011;25554;44.954;10.068;2023-04-25T08:47:13;1.05;;;0.60;;
39880;SDS011;25554;44.954;10.068;2023-04-25T08:49:45;0.20;;;0.20;;
39880;SDS011;25554;44.954;10.068;2023-04-25T08:52:13;0.40;;;0.30;;
39880;SDS011;25554;44.954;10.068;2023-04-25T08:54:41;0.38;;;0.28;;
39880;SDS011;25554;44.954;10.068;2023-04-25T08:57:10;1.52;;;0.20;;
39880;SDS011;25554;44.954;10.068;2023-04-25T08:59:37;0.28;;;0.20;;
39880;SDS011;25554;44.954;10.068;2023-04-25T09:02:06;1.08;;;0.30;;
39880;SDS011;25554;44.954;10.068;2023-04-25T09:04:34;0.22;;;0.13;;
39880;SDS011;25554;44.954;10.068;2023-04-25T09:07:01;0.30;;;0.20;;
39880;SDS011;25554;44.954;10.068;2023-04-25T09:09:29;0.65;;;0.20;;
39880;SDS011;25554;44.954;10.068;2023-04-25T09:11:56;1.10;;;0.10;;
39880;SDS011;25554;44.954;10.068;2023-04-25T09:14:24;1.98;;;0.15;;
39880;SDS011;25554;44.954;10.068;2023-04-25T09:17:06;0.38;;;0.20;;
39880;SDS011;25554;44.954;10.068;2023-04-25T09:19:38;0.55;;;0.20;;
39880;SDS011;25554;44.954;10.068;2023-04-25T09:22:11;0.70;;;0.20;;
39880;SDS011;25554;44.954;10.068;2023-04-25T09:24:41;0.00;;;0.00;;
39880;SDS011;25554;44.954;10.068;2023-04-25T09:27:11;0.82;;;0.20;;
39880;SDS011;25554;44.954;10.068;2023-04-25T09:29:38;1.85;;;0.22;;
39880;SDS011;25554;44.954;10.068;2023-04-25T09:32:19;0.10;;;0.10;;
39880;SDS011;25554;44.954;10.068;2023-04-25T09:34:49;1.35;;;0.30;;
39880;SDS011;25554;44.954;10.068;2023-04-25T09:37:22;0.13;;;0.13;;
39880;SDS011;25554;44.954;10.068;2023-04-25T09:40:27;1.08;;;0.20;;
39880;SDS011;25554;44.954;10.068;2023-04-25T09:43:01;1.05;;;0.20;;
39880;SDS011;25554;44.954;10.068;2023-04-25T09:45:29;0.63;;;0.20;;
39880;SDS011;25554;44.954;10.068;2023-04-25T09:48:02;0.20;;;0.20;;
39880;SDS011;25554;44.954;10.068;2023-04-25T09:50:34;4.90;;;0.28;;
39880;SDS011;25554;44.954;10.068;2023-04-25T09:53:07;2.05;;;0.20;;
39880;SDS011;25554;44.954;10.068;2023-04-25T09:55:50;2.42;;;0.25;;
39880;SDS011;25554;44.954;10.068;2023-04-25T09:58:17;0.25;;;0.25;;
39880;SDS011;25554;44.954;10.068;2023-04-25T10:00:44;0.77;;;0.20;;
39880;SDS011;25554;44.954;10.068;2023-04-25T10:03:23;0.98;;;0.20;;
39880;SDS011;25554;44.954;10.068;2023-04-25T10:06:14;0.32;;;0.15;;
39880;SDS011;25554;44.954;10.068;2023-04-25T10:08:44;1.27;;;0.30;;
39880;SDS011;25554;44.954;10.068;2023-04-25T10:11:11;0.22;;;0.10;;
39880;SDS011;25554;44.954;10.068;2023-04-25T10:13:39;0.90;;;0.28;;
39880;SDS011;25554;44.954;10.068;2023-04-25T10:16:06;0.70;;;0.20;;
39880;SDS011;25554;44.954;10.068;2023-04-25T10:21:00;2.45;;;0.20;;
39880;SDS011;25554;44.954;10.068;2023-04-25T10:23:27;1.02;;;0.43;;
39880;SDS011;25554;44.954;10.068;2023-04-25T10:25:55;0.28;;;0.20;;
39880;SDS011;25554;44.954;10.068;2023-04-25T10:28:22;1.05;;;0.15;;
39880;SDS011;25554;44.954;10.068;2023-04-25T10:31:04;0.25;;;0.20;;
39880;SDS011;25554;44.954;10.068;2023-04-25T10:36:13;0.45;;;0.20;;
39880;SDS011;25554;44.954;10.068;2023-04-25T10:38:41;0.17;;;0.17;;
39880;SDS011;25554;44.954;10.068;2023-04-25T10:41:09;0.30;;;0.20;;
39880;SDS011;25554;44.954;10.068;2023-04-25T10:43:37;0.52;;;0.40;;
39880;SDS011;25554;44.954;10.068;2023-04-25T10:46:17;0.63;;;0.40;;
39880;SDS011;25554;44.954;10.068;2023-04-25T10:48:48;1.73;;;0.70;;
39880;SDS011;25554;44.954;10.068;2023-04-25T10:54:01;2.60;;;0.40;;
39880;SDS011;25554;44.954;10.068;2023-04-25T10:59:11;0.75;;;0.60;;
39880;SDS011;25554;44.954;10.068;2023-04-25T11:01:48;0.57;;;0.50;;
39880;SDS011;25554;44.954;10.068;2023-04-25T11:09:29;1.35;;;0.70;;
39880;SDS011;25554;44.954;10.068;2023-04-25T11:11:56;0.57;;;0.57;;
39880;SDS011;25554;44.954;10.068;2023-04-25T11:14:24;3.80;;;0.50;;
39880;SDS011;25554;44.954;10.068;2023-04-25T11:16:54;3.13;;;0.70;;
39880;SDS011;25554;44.954;10.068;2023-04-25T11:22:14;1.17;;;0.85;;
39880;SDS011;25554;44.954;10.068;2023-04-25T11:27:08;4.60;;;1.20;;
39880;SDS011;25554;44.954;10.068;2023-04-25T11:29:35;1.67;;;1.15;;
39880;SDS011;25554;44.954;10.068;2023-04-25T11:32:04;1.67;;;1.02;;
39880;SDS011;25554;44.954;10.068;2023-04-25T11:34:31;2.72;;;1.00;;
39880;SDS011;25554;44.954;10.068;2023-04-25T11:37:02;1.83;;;1.02;;
39880;SDS011;25554;44.954;10.068;2023-04-25T11:39:29;2.42;;;1.00;;
39880;SDS011;25554;44.954;10.068;2023-04-25T11:41:56;1.25;;;0.90;;
39880;SDS011;25554;44.954;10.068;2023-04-25T11:44:23;1.30;;;0.73;;
39880;SDS011;25554;44.954;10.068;2023-04-25T11:46:50;2.63;;;1.40;;
39880;SDS011;25554;44.954;10.068;2023-04-25T11:51:47;1.85;;;1.20;;
39880;SDS011;25554;44.954;10.068;2023-04-25T11:54:16;2.67;;;1.02;;
39880;SDS011;25554;44.954;10.068;2023-04-25T11:56:44;1.95;;;1.10;;
39880;SDS011;25554;44.954;10.068;2023-04-25T11:59:13;3.58;;;1.50;;
39880;SDS011;25554;44.954;10.068;2023-04-25T12:01:48;1.67;;;1.20;;
39880;SDS011;25554;44.954;10.068;2023-04-25T12:04:19;1.92;;;1.33;;
39880;SDS011;25554;44.954;10.068;2023-04-25T12:06:46;3.83;;;1.38;;
39880;SDS011;25554;44.954;10.068;2023-04-25T12:09:14;2.80;;;1.40;;
39880;SDS011;25554;44.954;10.068;2023-04-25T12:11:48;7.22;;;1.63;;
39880;SDS011;25554;44.954;10.068;2023-04-25T12:14:22;2.88;;;1.40;;
39880;SDS011;25554;44.954;10.068;2023-04-25T12:16:56;2.00;;;1.27;;
39880;SDS011;25554;44.954;10.068;2023-04-25T12:19:27;3.67;;;1.10;;
39880;SDS011;25554;44.954;10.068;2023-04-25T12:21:59;3.80;;;1.35;;
39880;SDS011;25554;44.954;10.068;2023-04-25T12:24:26;4.18;;;1.90;;
39880;SDS011;25554;44.954;10.068;2023-04-25T12:26:58;1.90;;;1.50;;
39880;SDS011;25554;44.954;10.068;2023-04-25T12:29:25;2.70;;;1.52;;
39880;SDS011;25554;44.954;10.068;2023-04-25T12:31:53;1.95;;;1.45;;
39880;SDS011;25554;44.954;10.068;2023-04-25T12:34:21;2.90;;;1.65;;
39880;SDS011;25554;44.954;10.068;2023-04-25T12:36:48;3.72;;;1.90;;
39880;SDS011;25554;44.954;10.068;2023-04-25T12:39:21;2.75;;;1.90;;
39880;SDS011;25554;44.954;10.068;2023-04-25T12:41:48;1.60;;;1.27;;
39880;SDS011;25554;44.954;10.068;2023-04-25T12:44:15;2.92;;;1.27;;
39880;SDS011;25554;44.954;10.068;2023-04-25T12:46:41;1.58;;;1.48;;
39880;SDS011;25554;44.954;10.068;2023-04-25T12:49:08;6.57;;;2.10;;
39880;SDS011;25554;44.954;10.068;2023-04-25T12:51:35;1.73;;;1.55;;
39880;SDS011;25554;44.954;10.068;2023-04-25T12:56:59;5.53;;;1.40;;
39880;SDS011;25554;44.954;10.068;2023-04-25T12:59:28;4.50;;;1.60;;
39880;SDS011;25554;44.954;10.068;2023-04-25T13:02:09;3.72;;;1.67;;
39880;SDS011;25554;44.954;10.068;2023-04-25T13:04:36;3.15;;;1.38;;
39880;SDS011;25554;44.954;10.068;2023-04-25T13:07:08;2.90;;;1.60;;
39880;SDS011;25554;44.954;10.068;2023-04-25T13:12:18;2.47;;;1.40;;
39880;SDS011;25554;44.954;10.068;2023-04-25T13:14:44;2.97;;;1.70;;
39880;SDS011;25554;44.954;10.068;2023-04-25T13:17:14;6.18;;;1.92;;
39880;SDS011;25554;44.954;10.068;2023-04-25T13:22:07;2.60;;;1.45;;
39880;SDS011;25554;44.954;10.068;2023-04-25T13:24:51;4.70;;;1.40;;
39880;SDS011;25554;44.954;10.068;2023-04-25T13:27:40;4.93;;;1.73;;
39880;SDS011;25554;44.954;10.068;2023-04-25T13:30:07;3.33;;;1.65;;
39880;SDS011;25554;44.954;10.068;2023-04-25T13:32:34;4.13;;;1.55;;
39880;SDS011;25554;44.954;10.068;2023-04-25T13:35:02;4.65;;;1.58;;
39880;SDS011;25554;44.954;10.068;2023-04-25T13:37:29;1.33;;;1.20;;
39880;SDS011;25554;44.954;10.068;2023-04-25T13:40:01;2.58;;;1.45;;
39880;SDS011;25554;44.954;10.068;2023-04-25T13:42:30;2.25;;;1.30;;
39880;SDS011;25554;44.954;10.068;2023-04-25T13:44:57;4.43;;;1.25;;
39880;SDS011;25554;44.954;10.068;2023-04-25T13:47:25;0.77;;;0.52;;
39880;SDS011;25554;44.954;10.068;2023-04-25T13:49:52;4.43;;;0.95;;
39880;SDS011;25554;44.954;10.068;2023-04-25T13:52:18;1.95;;;1.10;;
39880;SDS011;25554;44.954;10.068;2023-04-25T13:54:45;4.07;;;1.30;;
39880;SDS011;25554;44.954;10.068;2023-04-25T13:57:12;2.17;;;1.10;;
39880;SDS011;25554;44.954;10.068;2023-04-25T13:59:39;3.30;;;0.90;;
39880;SDS011;25554;44.954;10.068;2023-04-25T14:02:08;2.33;;;1.17;;
39880;SDS011;25554;44.954;10.068;2023-04-25T14:04:35;4.13;;;1.13;;
39880;SDS011;25554;44.954;10.068;2023-04-25T14:09:28;3.30;;;1.05;;
39880;SDS011;25554;44.954;10.068;2023-04-25T14:11:55;2.15;;;1.38;;
39880;SDS011;25554;44.954;10.068;2023-04-25T14:14:22;3.90;;;1.20;;
39880;SDS011;25554;44.954;10.068;2023-04-25T14:16:49;1.05;;;0.70;;
39880;SDS011;25554;44.954;10.068;2023-04-25T14:19:17;3.13;;;0.90;;
39880;SDS011;25554;44.954;10.068;2023-04-25T14:21:44;1.20;;;0.85;;
39880;SDS011;25554;44.954;10.068;2023-04-25T14:24:11;1.05;;;0.80;;
39880;SDS011;25554;44.954;10.068;2023-04-25T14:26:38;1.05;;;0.75;;
39880;SDS011;25554;44.954;10.068;2023-04-25T14:29:06;2.85;;;0.75;;
39880;SDS011;25554;44.954;10.068;2023-04-25T14:31:34;3.05;;;1.17;;
39880;SDS011;25554;44.954;10.068;2023-04-25T14:34:01;2.15;;;0.60;;
39880;SDS011;25554;44.954;10.068;2023-04-25T14:36:28;1.38;;;0.63;;
39880;SDS011;25554;44.954;10.068;2023-04-25T14:38:56;2.17;;;0.80;;
39880;SDS011;25554;44.954;10.068;2023-04-25T14:41:23;1.08;;;0.90;;
39880;SDS011;25554;44.954;10.068;2023-04-25T14:43:50;0.93;;;0.80;;
39880;SDS011;25554;44.954;10.068;2023-04-25T14:46:16;1.70;;;0.65;;
39880;SDS011;25554;44.954;10.068;2023-04-25T14:51:09;3.55;;;0.90;;
39880;SDS011;25554;44.954;10.068;2023-04-25T14:53:36;1.20;;;1.00;;
39880;SDS011;25554;44.954;10.068;2023-04-25T14:56:03;1.13;;;0.75;;
39880;SDS011;25554;44.954;10.068;2023-04-25T14:58:30;4.85;;;1.38;;
39880;SDS011;25554;44.954;10.068;2023-04-25T15:00:58;1.25;;;0.70;;
39880;SDS011;25554;44.954;10.068;2023-04-25T15:03:25;2.67;;;1.23;;
39880;SDS011;25554;44.954;10.068;2023-04-25T15:05:52;0.80;;;0.80;;
39880;SDS011;25554;44.954;10.068;2023-04-25T15:08:19;1.90;;;1.02;;
39880;SDS011;25554;44.954;10.068;2023-04-25T15:13:12;4.20;;;0.73;;
39880;SDS011;25554;44.954;10.068;2023-04-25T15:18:05;9.73;;;2.40;;
39880;SDS011;25554;44.954;10.068;2023-04-25T15:20:32;5.53;;;1.80;;
39880;SDS011;25554;44.954;10.068;2023-04-25T15:25:25;14.30;;;3.90;;
39880;SDS011;25554;44.954;10.068;2023-04-25T15:27:54;4.75;;;2.15;;
39880;SDS011;25554;44.954;10.068;2023-04-25T15:32:47;10.43;;;2.15;;
39880;SDS011;25554;44.954;10.068;2023-04-25T15:35:13;8.43;;;2.80;;
39880;SDS011;25554;44.954;10.068;2023-04-25T15:37:40;7.55;;;2.20;;
39880;SDS011;25554;44.954;10.068;2023-04-25T15:40:08;5.10;;;1.42;;
39880;SDS011;25554;44.954;10.068;2023-04-25T15:42:36;4.45;;;1.40;;
39880;SDS011;25554;44.954;10.068;2023-04-25T15:45:07;5.60;;;1.80;;
39880;SDS011;25554;44.954;10.068;2023-04-25T15:47:34;1.90;;;1.05;;
39880;SDS011;25554;44.954;10.068;2023-04-25T15:50:03;5.25;;;1.33;;
39880;SDS011;25554;44.954;10.068;2023-04-25T15:52:29;2.58;;;0.75;;
39880;SDS011;25554;44.954;10.068;2023-04-25T15:57:23;4.65;;;0.52;;
39880;SDS011;25554;44.954;10.068;2023-04-25T15:59:50;0.75;;;0.45;;
39880;SDS011;25554;44.954;10.068;2023-04-25T16:04:43;1.15;;;0.20;;
39880;SDS011;25554;44.954;10.068;2023-04-25T16:07:11;1.48;;;0.20;;
39880;SDS011;25554;44.954;10.068;2023-04-25T16:09:38;0.25;;;0.25;;
39880;SDS011;25554;44.954;10.068;2023-04-25T16:12:06;0.68;;;0.22;;
39880;SDS011;25554;44.954;10.068;2023-04-25T16:14:32;0.50;;;0.20;;
39880;SDS011;25554;44.954;10.068;2023-04-25T16:16:59;0.35;;;0.35;;
39880;SDS011;25554;44.954;10.068;2023-04-25T16:21:52;0.75;;;0.30;;
39880;SDS011;25554;44.954;10.068;2023-04-25T16:24:19;1.45;;;0.22;;
39880;SDS011;25554;44.954;10.068;2023-04-25T16:26:45;0.60;;;0.30;;
39880;SDS011;25554;44.954;10.068;2023-04-25T16:31:42;0.45;;;0.32;;
39880;SDS011;25554;44.954;10.068;2023-04-25T16:34:08;1.60;;;0.50;;
39880;SDS011;25554;44.954;10.068;2023-04-25T16:36:35;0.68;;;0.40;;
39880;SDS011;25554;44.954;10.068;2023-04-25T16:39:02;1.40;;;0.60;;
39880;SDS011;25554;44.954;10.068;2023-04-25T16:43:55;0.90;;;0.32;;
39880;SDS011;25554;44.954;10.068;2023-04-25T16:48:48;1.50;;;0.38;;
39880;SDS011;25554;44.954;10.068;2023-04-25T16:53:41;0.63;;;0.55;;
39880;SDS011;25554;44.954;10.068;2023-04-25T16:56:08;0.70;;;0.50;;
39880;SDS011;25554;44.954;10.068;2023-04-25T16:58:34;0.65;;;0.65;;
39880;SDS011;25554;44.954;10.068;2023-04-25T17:01:01;1.00;;;0.60;;